createdAt,value
2022-12-25T00:00:44.655Z,96.70
2022-12-25T00:03:11.832Z,96.70
2022-12-25T00:05:38.854Z,96.80
2022-12-25T00:08:05.858Z,96.50
2022-12-25T00:10:32.709Z,96.70
2022-12-25T00:12:59.701Z,97.10
2022-12-25T00:15:26.857Z,97.00
2022-12-25T00:17:53.856Z,96.70
2022-12-25T00:20:20.554Z,96.70
2022-12-25T00:22:47.552Z,97.00
2022-12-25T00:25:14.548Z,96.90
2022-12-25T00:27:41.558Z,96.60
2022-12-25T00:30:08.572Z,96.70
2022-12-25T00:32:35.622Z,97.00
2022-12-25T00:35:02.538Z,96.60
2022-12-25T00:37:29.533Z,96.40
2022-12-25T00:39:56.219Z,96.60
2022-12-25T00:42:24.035Z,96.60
2022-12-25T00:44:51.055Z,96.60
2022-12-25T00:47:18.193Z,96.50
2022-12-25T00:49:45.280Z,96.60
2022-12-25T00:52:12.279Z,97.10
2022-12-25T00:54:39.387Z,97.20
2022-12-25T00:57:06.364Z,96.70
2022-12-25T00:59:33.339Z,96.80
2022-12-25T01:02:20.265Z,97.10
2022-12-25T01:04:47.373Z,97.00
2022-12-25T01:07:14.376Z,97.40
2022-12-25T01:09:59.963Z,96.90
2022-12-25T01:12:26.947Z,96.50
2022-12-25T01:14:53.899Z,96.40
2022-12-25T01:17:20.835Z,97.40
2022-12-25T01:19:47.886Z,97.00
2022-12-25T01:22:16.528Z,96.90
2022-12-25T01:24:44.093Z,96.70
2022-12-25T01:27:11.100Z,96.50
2022-12-25T01:29:38.214Z,96.40
2022-12-25T01:32:05.273Z,96.50
2022-12-25T01:34:32.254Z,96.50
2022-12-25T01:36:59.346Z,96.60
2022-12-25T01:39:26.612Z,96.40
2022-12-25T01:41:53.583Z,96.30
2022-12-25T01:44:20.705Z,96.50
2022-12-25T01:46:47.769Z,96.80
2022-12-25T01:49:14.814Z,96.90
2022-12-25T01:51:41.863Z,96.80
2022-12-25T01:54:08.903Z,96.90
2022-12-25T01:56:36.089Z,97.30
2022-12-25T01:59:03.208Z,97.10
2022-12-25T02:01:30.303Z,97.50
2022-12-25T02:03:57.288Z,97.80
2022-12-25T02:06:24.434Z,97.50
2022-12-25T02:08:51.623Z,97.50
2022-12-25T02:11:37.257Z,97.50
2022-12-25T02:14:04.167Z,97.90
2022-12-25T02:16:31.204Z,98.10
2022-12-25T02:18:58.354Z,98.10
2022-12-25T02:21:25.381Z,98.60
2022-12-25T02:23:52.447Z,98.30
2022-12-25T02:26:19.594Z,98.20
2022-12-25T02:28:46.730Z,97.90
2022-12-25T02:31:13.763Z,97.90
2022-12-25T02:33:59.469Z,98.30
2022-12-25T02:36:26.478Z,97.90
2022-12-25T02:39:12.218Z,97.60
2022-12-25T02:41:38.845Z,97.60
2022-12-25T02:44:24.641Z,98.00
2022-12-25T02:47:09.756Z,98.40
2022-12-25T02:49:54.940Z,98.10
2022-12-25T02:52:40.221Z,98.20
2022-12-25T02:55:25.939Z,98.00
2022-12-25T02:58:11.148Z,98.50
2022-12-25T03:00:56.584Z,98.60
2022-12-25T03:03:42.263Z,98.00
2022-12-25T03:06:27.772Z,98.40
2022-12-25T03:08:54.870Z,98.50
2022-12-25T03:11:34.335Z,98.70
2022-12-25T03:14:21.144Z,98.20
2022-12-25T03:16:51.291Z,98.50
2022-12-25T03:19:37.042Z,98.20
2022-12-25T03:22:22.688Z,98.10
2022-12-25T03:25:07.848Z,98.10
2022-12-25T03:27:34.499Z,98.20
2022-12-25T03:30:20.134Z,98.30
2022-12-25T03:32:47.182Z,97.60
2022-12-25T03:35:23.475Z,98.30
2022-12-25T03:38:09.130Z,98.10
2022-12-25T03:40:54.632Z,97.90
2022-12-25T03:43:39.788Z,98.90
2022-12-25T03:46:25.349Z,98.30
2022-12-25T03:49:10.832Z,98.00
2022-12-25T03:51:56.295Z,98.10
2022-12-25T03:54:42.087Z,98.10
2022-12-25T03:57:27.232Z,98.20
2022-12-25T04:00:12.843Z,98.20
2022-12-25T04:02:58.124Z,98.70
2022-12-25T04:05:43.655Z,98.70
2022-12-25T04:08:29.135Z,98.60
2022-12-25T04:11:14.454Z,98.40
2022-12-25T04:14:00.053Z,98.80
2022-12-25T04:16:45.650Z,98.60
2022-12-25T04:19:30.973Z,99.20
2022-12-25T04:22:16.448Z,98.50
2022-12-25T04:25:01.739Z,98.60
2022-12-25T04:27:47.476Z,99.10
2022-12-25T04:30:33.023Z,99.70
2022-12-25T04:33:18.859Z,98.90
2022-12-25T04:36:04.178Z,99.20
2022-12-25T04:38:31.277Z,99.30
2022-12-25T04:40:58.376Z,99.20
2022-12-25T04:43:25.685Z,98.70
2022-12-25T04:45:52.673Z,98.10
2022-12-25T04:48:19.650Z,98.20
2022-12-25T04:50:46.633Z,98.80
2022-12-25T04:53:13.816Z,98.70
2022-12-25T04:55:40.765Z,98.20
2022-12-25T04:58:07.671Z,98.40
2022-12-25T05:00:34.709Z,98.50
2022-12-25T05:03:01.849Z,98.60
2022-12-25T05:05:29.267Z,98.60
2022-12-25T05:07:56.402Z,99.70
2022-12-25T05:10:23.561Z,99.10
2022-12-25T05:12:50.642Z,99.00
2022-12-25T05:15:17.855Z,98.50
2022-12-25T05:17:44.795Z,98.60
2022-12-25T05:20:11.690Z,98.70
2022-12-25T05:22:38.856Z,98.60
2022-12-25T05:25:05.735Z,98.10
2022-12-25T05:27:32.686Z,98.00
2022-12-25T05:29:59.711Z,98.40
2022-12-25T05:32:26.731Z,98.30
2022-12-25T05:34:53.699Z,98.30
2022-12-25T05:37:20.860Z,98.40
2022-12-25T05:39:47.670Z,98.50
2022-12-25T05:42:14.631Z,98.60
2022-12-25T05:44:41.656Z,98.50
2022-12-25T05:47:08.776Z,98.60
2022-12-25T05:49:35.776Z,98.90
2022-12-25T05:52:02.731Z,99.10
2022-12-25T05:54:29.482Z,99.10
2022-12-25T05:56:56.416Z,98.40
2022-12-25T05:59:23.378Z,98.40
2022-12-25T06:01:50.520Z,98.60
2022-12-25T06:04:17.635Z,98.50
2022-12-25T06:06:44.701Z,98.30
2022-12-25T06:09:11.763Z,98.20
2022-12-25T06:11:38.793Z,98.60
2022-12-25T06:14:05.719Z,98.90
2022-12-25T06:16:37.915Z,98.40
2022-12-25T06:19:05.657Z,99.00
2022-12-25T06:21:32.656Z,98.60
2022-12-25T06:23:59.790Z,98.30
2022-12-25T06:26:26.757Z,98.20
2022-12-25T06:28:53.888Z,98.30
2022-12-25T06:31:20.928Z,98.20
2022-12-25T06:33:47.896Z,98.40
2022-12-25T06:36:14.978Z,98.20
2022-12-25T06:38:41.994Z,98.40
2022-12-25T06:41:08.966Z,98.50
2022-12-25T06:43:35.758Z,98.10
2022-12-25T06:46:02.750Z,98.40
2022-12-25T06:48:32.492Z,98.40
2022-12-25T06:50:59.424Z,98.50
2022-12-25T06:53:27.577Z,98.30
2022-12-25T06:55:54.584Z,98.20
2022-12-25T06:58:21.590Z,98.90
2022-12-25T07:00:48.551Z,98.80
2022-12-25T07:03:15.751Z,99.10
2022-12-25T07:05:42.844Z,98.50
2022-12-25T07:08:10.003Z,98.40
2022-12-25T07:10:36.938Z,98.60
2022-12-25T07:13:03.901Z,98.60
2022-12-25T07:15:30.952Z,98.60
2022-12-25T07:17:57.940Z,98.30
2022-12-25T07:20:25.534Z,99.00
2022-12-25T07:22:52.657Z,98.40
2022-12-25T07:25:19.614Z,98.30
2022-12-25T07:27:46.511Z,98.80
2022-12-25T07:30:13.230Z,98.30
2022-12-25T07:32:41.559Z,98.60
2022-12-25T07:35:11.238Z,98.50
2022-12-25T07:37:38.362Z,98.00
2022-12-25T07:40:05.277Z,98.10
2022-12-25T07:42:32.235Z,97.90
2022-12-25T07:44:59.171Z,98.00
2022-12-25T07:47:26.107Z,98.00
2022-12-25T07:49:53.075Z,98.80
2022-12-25T07:52:20.027Z,97.80
2022-12-25T07:54:46.969Z,98.30
2022-12-25T07:57:13.864Z,97.90
2022-12-25T07:59:40.463Z,99.10
2022-12-25T08:02:07.369Z,99.00
2022-12-25T08:04:34.745Z,97.60
2022-12-25T08:07:01.564Z,97.60
2022-12-25T08:09:28.589Z,98.30
2022-12-25T08:11:55.212Z,98.30
2022-12-25T08:14:21.813Z,97.90
2022-12-25T08:16:48.574Z,98.00
2022-12-25T08:19:15.509Z,98.80
2022-12-25T08:21:42.424Z,98.00
2022-12-25T08:24:09.177Z,98.00
2022-12-25T08:26:35.899Z,98.80
2022-12-25T08:29:02.689Z,98.40
2022-12-25T08:31:29.736Z,97.50
2022-12-25T08:33:56.577Z,97.70
2022-12-25T08:36:23.543Z,97.60
2022-12-25T08:38:50.459Z,97.60
2022-12-25T08:41:17.467Z,97.40
2022-12-25T08:43:44.470Z,97.60
2022-12-25T08:46:11.346Z,97.60
2022-12-25T08:48:38.265Z,97.70
2022-12-25T08:51:05.301Z,97.60
2022-12-25T08:53:32.392Z,97.50
2022-12-25T08:55:59.413Z,97.50
2022-12-25T08:58:26.393Z,97.60
2022-12-25T09:00:53.519Z,97.50
2022-12-25T09:03:20.290Z,97.40
2022-12-25T09:05:47.363Z,97.70
2022-12-25T09:08:14.478Z,97.80
2022-12-25T09:10:42.195Z,97.60
2022-12-25T09:13:09.171Z,97.60
2022-12-25T09:15:36.192Z,97.40
2022-12-25T09:18:03.095Z,97.70
2022-12-25T09:20:29.950Z,97.50
2022-12-25T09:22:56.758Z,97.60
2022-12-25T09:25:23.757Z,97.90
2022-12-25T09:27:50.754Z,97.90
2022-12-25T09:30:17.708Z,98.00
2022-12-25T09:32:44.322Z,98.00
2022-12-25T09:35:11.312Z,98.80
2022-12-25T09:37:38.250Z,98.30
2022-12-25T09:40:04.887Z,98.30
2022-12-25T09:42:31.564Z,98.50
2022-12-25T09:44:58.367Z,98.90
2022-12-25T09:47:25.396Z,99.40
2022-12-25T09:49:52.413Z,98.80
2022-12-25T09:52:18.990Z,99.00
2022-12-25T09:54:46.067Z,98.50
2022-12-25T09:57:13.139Z,98.50
2022-12-25T09:59:39.993Z,99.00
2022-12-25T10:02:06.954Z,98.40
2022-12-25T10:04:39.106Z,98.30
2022-12-25T10:07:07.814Z,98.20
2022-12-25T10:09:34.651Z,98.30
2022-12-25T10:12:01.760Z,98.40
2022-12-25T10:14:28.759Z,98.10
2022-12-25T10:16:55.806Z,97.90
2022-12-25T10:19:23.193Z,98.10
2022-12-25T10:21:50.110Z,98.00
2022-12-25T10:24:16.992Z,97.70
2022-12-25T10:26:43.573Z,97.90
2022-12-25T10:29:10.545Z,97.50
2022-12-25T10:31:37.752Z,97.60
2022-12-25T10:34:04.506Z,97.50
2022-12-25T10:36:31.427Z,97.50
2022-12-25T10:38:58.150Z,97.40
2022-12-25T10:41:24.873Z,96.70
2022-12-25T10:43:51.747Z,96.90
2022-12-25T10:46:18.716Z,97.10
2022-12-25T10:48:45.751Z,97.10
2022-12-25T10:51:12.673Z,96.50
2022-12-25T10:53:39.694Z,96.70
2022-12-25T10:56:06.867Z,97.80
2022-12-25T10:58:33.897Z,96.60
2022-12-25T11:01:00.792Z,96.60
2022-12-25T11:03:27.820Z,96.90
2022-12-25T11:05:55.073Z,97.10
2022-12-25T11:08:22.043Z,96.70
2022-12-25T11:10:49.063Z,96.70
2022-12-25T11:13:16.258Z,97.10
2022-12-25T11:15:43.276Z,97.10
2022-12-25T11:18:10.500Z,96.50
2022-12-25T11:20:40.032Z,97.00
2022-12-25T11:23:09.694Z,96.90
2022-12-25T11:25:36.712Z,97.00
2022-12-25T11:28:03.683Z,97.00
2022-12-25T11:30:30.445Z,97.10
2022-12-25T11:32:57.491Z,97.10
2022-12-25T11:35:25.195Z,97.30
2022-12-25T11:37:52.199Z,96.90
2022-12-25T11:40:19.290Z,96.30
2022-12-25T11:42:46.338Z,95.70
2022-12-25T11:45:13.257Z,95.10
2022-12-25T11:47:39.893Z,96.20
2022-12-25T11:50:06.519Z,95.00
2022-12-25T11:52:33.506Z,95.00
2022-12-25T11:55:00.503Z,94.20
2022-12-25T11:57:28.050Z,94.50
2022-12-25T11:59:56.240Z,94.40
2022-12-25T12:02:23.359Z,94.60
2022-12-25T12:04:50.452Z,93.60
2022-12-25T12:07:17.454Z,95.40
2022-12-25T12:09:44.444Z,93.40
2022-12-25T12:12:11.747Z,93.40
2022-12-25T12:14:39.923Z,92.60
2022-12-25T12:17:06.853Z,93.20
2022-12-25T12:19:36.885Z,92.60
2022-12-25T12:22:03.588Z,92.30
2022-12-25T12:24:30.392Z,91.60
2022-12-25T12:26:57.401Z,92.40
2022-12-25T12:29:24.439Z,91.90
2022-12-25T12:31:51.443Z,90.30
2022-12-25T12:34:18.639Z,90.00
2022-12-25T12:36:45.572Z,89.70
2022-12-25T12:39:12.590Z,91.80
2022-12-25T12:41:39.536Z,91.80
2022-12-25T12:44:07.697Z,90.80
2022-12-25T12:46:34.767Z,91.80
2022-12-25T12:49:01.482Z,91.50
2022-12-25T12:51:28.426Z,90.30
2022-12-25T12:53:55.288Z,90.40
2022-12-25T12:56:22.388Z,90.30
2022-12-25T12:58:51.203Z,90.60
2022-12-25T13:01:18.369Z,90.60
2022-12-25T13:03:45.375Z,90.30
2022-12-25T13:06:12.085Z,89.00
2022-12-25T13:08:39.054Z,91.10
2022-12-25T13:11:06.126Z,91.30
2022-12-25T13:13:33.116Z,90.70
2022-12-25T13:16:00.131Z,91.40
2022-12-25T13:18:27.145Z,91.70
2022-12-25T13:20:57.305Z,92.20
2022-12-25T13:23:24.636Z,90.80
2022-12-25T13:25:51.478Z,90.50
2022-12-25T13:28:18.283Z,90.50
2022-12-25T13:30:45.452Z,91.10
2022-12-25T13:33:12.399Z,90.80
2022-12-25T13:35:39.551Z,90.70
2022-12-25T13:38:06.565Z,90.70
2022-12-25T13:40:33.557Z,90.50
2022-12-25T13:43:00.409Z,91.30
2022-12-25T13:45:27.507Z,91.50
2022-12-25T13:47:55.710Z,91.00
2022-12-25T13:50:23.193Z,90.80
2022-12-25T13:52:49.914Z,90.80
2022-12-25T13:55:17.049Z,91.60
2022-12-25T13:57:44.121Z,92.70
2022-12-25T14:00:11.116Z,92.60
2022-12-25T14:02:38.195Z,92.60
2022-12-25T14:05:05.404Z,92.30
2022-12-25T14:07:32.390Z,93.20
2022-12-25T14:09:59.151Z,93.70
2022-12-25T14:12:26.250Z,93.60
2022-12-25T14:14:53.341Z,92.60
2022-12-25T14:17:20.424Z,93.10
2022-12-25T14:19:47.515Z,93.20
2022-12-25T14:22:14.555Z,93.50
2022-12-25T14:24:41.237Z,92.90
2022-12-25T14:27:08.158Z,94.00
2022-12-25T14:29:35.085Z,93.80
2022-12-25T14:32:01.727Z,92.90
2022-12-25T14:34:28.536Z,92.90
2022-12-25T14:36:55.130Z,93.10
2022-12-25T14:39:21.738Z,93.10
2022-12-25T14:41:48.386Z,93.10
2022-12-25T14:44:15.017Z,94.30
2022-12-25T14:46:41.773Z,93.10
2022-12-25T14:49:08.883Z,92.80
2022-12-25T14:51:35.836Z,93.30
2022-12-25T14:54:02.631Z,92.80
2022-12-25T14:56:29.400Z,93.00
2022-12-25T14:58:56.143Z,93.30
2022-12-25T15:01:23.193Z,93.60
2022-12-25T15:03:50.365Z,94.20
2022-12-25T15:06:19.194Z,93.70
2022-12-25T15:08:46.235Z,93.50
2022-12-25T15:11:13.235Z,93.30
2022-12-25T15:13:40.644Z,93.60
2022-12-25T15:16:07.736Z,93.80
2022-12-25T15:18:34.751Z,94.80
2022-12-25T15:21:01.672Z,93.90
2022-12-25T15:23:28.727Z,93.50
2022-12-25T15:25:55.340Z,93.80
2022-12-25T15:28:21.975Z,93.90
2022-12-25T15:30:50.214Z,94.50
2022-12-25T15:33:17.393Z,94.40
2022-12-25T15:35:44.543Z,94.70
2022-12-25T15:38:11.384Z,94.70
2022-12-25T15:40:38.047Z,95.00
2022-12-25T15:43:11.536Z,95.60
2022-12-25T15:45:47.993Z,95.10
2022-12-25T15:48:15.052Z,95.30
2022-12-25T15:50:41.981Z,95.60
2022-12-25T15:53:08.705Z,95.80
2022-12-25T15:55:36.829Z,96.00
2022-12-25T15:58:03.606Z,96.20
2022-12-25T16:00:30.672Z,96.40
2022-12-25T16:02:57.659Z,96.60
2022-12-25T16:05:24.332Z,96.70
2022-12-25T16:07:51.009Z,96.40
2022-12-25T16:10:17.764Z,96.50
2022-12-25T16:12:44.673Z,96.60
2022-12-25T16:15:11.815Z,96.70
2022-12-25T16:17:38.779Z,97.00
2022-12-25T16:20:05.444Z,97.80
2022-12-25T16:22:40.108Z,96.90
2022-12-25T16:25:07.376Z,96.70
2022-12-25T16:27:34.106Z,96.90
2022-12-25T16:30:00.816Z,97.40
2022-12-25T16:32:29.464Z,97.00
2022-12-25T16:34:56.499Z,96.70
2022-12-25T16:37:23.487Z,96.80
2022-12-25T16:39:50.302Z,97.40
2022-12-25T16:42:16.974Z,97.10
2022-12-25T16:44:43.981Z,96.50
2022-12-25T16:47:10.863Z,97.10
2022-12-25T16:49:37.780Z,96.70
2022-12-25T16:52:04.524Z,96.90
2022-12-25T16:54:31.457Z,97.10
2022-12-25T16:56:58.353Z,96.80
2022-12-25T16:59:25.060Z,97.00
2022-12-25T17:01:52.226Z,97.30
2022-12-25T17:04:19.320Z,97.00
2022-12-25T17:06:46.190Z,97.00
2022-12-25T17:09:13.094Z,97.60
2022-12-25T17:11:40.134Z,97.30
2022-12-25T17:14:07.209Z,97.20
2022-12-25T17:16:34.459Z,97.60
2022-12-25T17:19:04.665Z,97.90
2022-12-25T17:21:32.967Z,97.00
2022-12-25T17:24:03.454Z,97.30
2022-12-25T17:26:31.018Z,97.60
2022-12-25T17:28:57.991Z,97.00
2022-12-25T17:31:24.991Z,97.20
2022-12-25T17:33:52.173Z,97.10
2022-12-25T17:36:19.209Z,96.90
2022-12-25T17:38:46.584Z,97.40
2022-12-25T17:41:13.642Z,97.30
2022-12-25T17:43:45.948Z,97.30
2022-12-25T17:46:12.954Z,96.70
2022-12-25T17:48:39.989Z,97.50
2022-12-25T17:51:06.942Z,97.40
2022-12-25T17:53:33.908Z,97.50
2022-12-25T17:56:00.824Z,97.90
2022-12-25T17:58:27.826Z,98.30
2022-12-25T18:00:56.201Z,98.80
2022-12-25T18:03:23.265Z,98.90
2022-12-25T18:05:50.357Z,99.10
2022-12-25T18:08:17.415Z,99.50
2022-12-25T18:10:44.319Z,99.60
2022-12-25T18:13:11.376Z,99.90
2022-12-25T18:15:38.444Z,99.90
2022-12-25T18:18:05.473Z,99.90
2022-12-25T18:20:39.332Z,99.90
2022-12-25T18:23:07.079Z,99.90
2022-12-25T18:25:34.020Z,99.90
2022-12-25T18:28:02.675Z,99.90
2022-12-25T18:30:29.983Z,99.90
2022-12-25T18:32:56.954Z,99.90
2022-12-25T18:35:29.264Z,99.90
2022-12-25T18:37:56.285Z,99.90
2022-12-25T18:40:23.344Z,99.90
2022-12-25T18:42:53.840Z,99.90
2022-12-25T18:45:24.830Z,99.90
2022-12-25T18:47:52.061Z,99.90
2022-12-25T18:50:20.332Z,99.90
2022-12-25T18:52:51.639Z,99.90
2022-12-25T18:55:18.951Z,99.90
2022-12-25T18:57:46.125Z,99.90
2022-12-25T19:00:13.016Z,99.90
2022-12-25T19:02:40.285Z,99.90
2022-12-25T19:05:07.847Z,99.90
2022-12-25T19:07:34.788Z,99.90
2022-12-25T19:10:01.827Z,99.90
2022-12-25T19:12:28.855Z,99.90
2022-12-25T19:14:55.924Z,99.90
2022-12-25T19:17:29.569Z,99.90
2022-12-25T19:19:58.425Z,99.90
2022-12-25T19:22:25.499Z,99.90
2022-12-25T19:24:52.559Z,99.90
2022-12-25T19:27:19.619Z,99.90
2022-12-25T19:29:46.684Z,99.90
2022-12-25T19:32:13.542Z,99.90
2022-12-25T19:34:40.620Z,99.90
2022-12-25T19:37:07.965Z,99.90
2022-12-25T19:39:34.921Z,99.90
2022-12-25T19:42:01.840Z,99.90
2022-12-25T19:44:28.898Z,99.90
2022-12-25T19:46:56.113Z,99.90
2022-12-25T19:49:23.043Z,99.90
2022-12-25T19:51:50.031Z,99.90
2022-12-25T19:54:17.384Z,99.90
2022-12-25T19:56:44.363Z,99.90
2022-12-25T19:59:11.349Z,99.90
2022-12-25T20:01:39.377Z,99.90
2022-12-25T20:04:08.218Z,99.90
2022-12-25T20:06:35.198Z,99.90
2022-12-25T20:09:02.121Z,99.90
2022-12-25T20:11:29.014Z,99.90
2022-12-25T20:13:56.115Z,99.90
2022-12-25T20:16:23.098Z,99.90
2022-12-25T20:18:50.239Z,99.90
2022-12-25T20:21:18.185Z,99.90
2022-12-25T20:23:45.168Z,99.90
2022-12-25T20:26:12.247Z,99.90
2022-12-25T20:28:39.331Z,99.90
2022-12-25T20:31:06.627Z,99.90
2022-12-25T20:33:33.605Z,99.90
2022-12-25T20:36:01.608Z,99.90
2022-12-25T20:38:28.568Z,99.90
2022-12-25T20:41:25.802Z,99.90
2022-12-25T20:43:45.416Z,99.90
2022-12-25T20:46:12.910Z,99.90
2022-12-25T20:48:39.965Z,99.90
2022-12-25T20:51:07.226Z,99.90
2022-12-25T20:53:34.412Z,99.90
2022-12-25T20:56:01.802Z,99.90
2022-12-25T20:58:28.785Z,99.90
2022-12-25T21:00:55.814Z,99.90
2022-12-25T21:03:22.928Z,99.90
2022-12-25T21:05:50.034Z,99.90
2022-12-25T21:08:17.480Z,99.90
2022-12-25T21:10:45.526Z,99.90
2022-12-25T21:13:12.411Z,99.90
2022-12-25T21:15:39.335Z,99.90
2022-12-25T21:18:06.421Z,99.90
2022-12-25T21:20:33.397Z,99.90
2022-12-25T21:23:00.357Z,99.90
2022-12-25T21:25:27.404Z,99.90
2022-12-25T21:27:54.274Z,99.90
2022-12-25T21:30:21.312Z,99.90
2022-12-25T21:33:06.751Z,99.90
2022-12-25T21:35:33.826Z,99.90
2022-12-25T21:38:00.861Z,99.90
2022-12-25T21:40:27.872Z,99.90
2022-12-25T21:42:54.867Z,99.90
2022-12-25T21:45:21.824Z,99.90
2022-12-25T21:48:01.831Z,99.90
2022-12-25T21:50:48.942Z,99.90
2022-12-25T21:53:15.928Z,99.90
2022-12-25T21:55:42.967Z,99.90
2022-12-25T21:58:09.939Z,99.90
2022-12-25T22:00:36.994Z,99.90
2022-12-25T22:03:04.130Z,99.90
2022-12-25T22:05:49.969Z,99.90
2022-12-25T22:08:17.084Z,99.90
2022-12-25T22:10:44.021Z,99.90
2022-12-25T22:13:29.791Z,99.90
2022-12-25T22:16:15.180Z,99.90
2022-12-25T22:19:00.635Z,99.90
2022-12-25T22:21:27.717Z,99.90
2022-12-25T22:23:54.565Z,99.90
2022-12-25T22:26:21.627Z,99.90
2022-12-25T22:28:48.616Z,99.90
2022-12-25T22:31:15.757Z,99.90
2022-12-25T22:33:42.718Z,99.90
2022-12-25T22:36:09.523Z,99.90
2022-12-25T22:38:36.435Z,99.90
2022-12-25T22:41:03.451Z,99.90
2022-12-25T22:44:06.406Z,99.90
2022-12-25T22:46:17.462Z,99.90
2022-12-25T22:48:44.587Z,99.90
2022-12-25T22:51:11.612Z,99.90
2022-12-25T22:53:38.663Z,99.90
2022-12-25T22:56:05.610Z,99.90
2022-12-25T22:58:32.769Z,99.90
2022-12-25T23:00:59.817Z,99.90
2022-12-25T23:03:26.969Z,99.90
2022-12-25T23:05:54.148Z,99.90
2022-12-25T23:08:21.157Z,99.90
2022-12-25T23:10:48.148Z,99.90
2022-12-25T23:13:33.931Z,99.90
2022-12-25T23:16:00.896Z,99.90
2022-12-25T23:18:46.688Z,99.90
2022-12-25T23:21:32.108Z,99.90
2022-12-25T23:24:17.408Z,99.90
2022-12-25T23:26:44.311Z,99.90
2022-12-25T23:29:30.077Z,99.90
2022-12-25T23:31:56.971Z,99.90
2022-12-25T23:34:24.070Z,99.90
2022-12-25T23:36:51.050Z,99.90
2022-12-25T23:39:18.076Z,99.90
2022-12-25T23:41:45.039Z,99.90
2022-12-25T23:44:12.123Z,99.90
2022-12-25T23:46:39.162Z,99.90
2022-12-25T23:49:06.296Z,99.90
2022-12-25T23:51:33.207Z,99.90
2022-12-25T23:54:00.295Z,99.90
2022-12-25T23:56:27.412Z,99.90
2022-12-25T23:58:54.554Z,99.90
